createdAt,value
2023-12-15T00:01:24.760Z,7.30
2023-12-15T00:03:51.138Z,7.20
2023-12-15T00:06:17.584Z,7.30
2023-12-15T00:08:44.100Z,6.45
2023-12-15T00:11:10.441Z,7.13
2023-12-15T00:13:36.938Z,6.78
2023-12-15T00:16:03.715Z,7.03
2023-12-15T00:18:30.152Z,7.50
2023-12-15T00:20:56.539Z,6.63
2023-12-15T00:23:22.940Z,7.38
2023-12-15T00:25:49.560Z,7.15
2023-12-15T00:28:15.957Z,6.73
2023-12-15T00:30:42.333Z,7.25
2023-12-15T00:33:08.753Z,7.38
2023-12-15T00:35:35.150Z,7.35
2023-12-15T00:38:01.699Z,6.95
2023-12-15T00:40:28.087Z,8.30
2023-12-15T00:42:54.498Z,7.85
2023-12-15T00:45:20.860Z,7.32
2023-12-15T00:47:47.411Z,8.00
2023-12-15T00:50:13.967Z,7.43
2023-12-15T00:52:40.409Z,7.37
2023-12-15T00:55:06.931Z,7.43
2023-12-15T00:57:33.288Z,7.28
2023-12-15T00:59:59.627Z,7.35
2023-12-15T01:02:26.020Z,7.68
2023-12-15T01:04:52.463Z,7.73
2023-12-15T01:07:18.859Z,7.22
2023-12-15T01:09:45.201Z,7.38
2023-12-15T01:12:11.616Z,7.78
2023-12-15T01:14:38.048Z,6.93
2023-12-15T01:17:04.454Z,6.70
2023-12-15T01:19:30.835Z,7.95
2023-12-15T01:21:57.194Z,7.15
2023-12-15T01:24:23.527Z,6.45
2023-12-15T01:26:49.894Z,7.15
2023-12-15T01:29:16.252Z,6.40
2023-12-15T01:31:42.651Z,6.30
2023-12-15T01:34:09.106Z,6.75
2023-12-15T01:36:37.235Z,6.20
2023-12-15T01:39:03.941Z,6.75
2023-12-15T01:41:32.646Z,6.33
2023-12-15T01:43:59.112Z,7.03
2023-12-15T01:46:25.513Z,6.55
2023-12-15T01:48:53.329Z,6.43
2023-12-15T01:51:19.749Z,5.88
2023-12-15T01:53:46.705Z,6.40
2023-12-15T01:56:13.192Z,5.97
2023-12-15T01:58:39.629Z,6.15
2023-12-15T02:01:08.325Z,5.93
2023-12-15T02:03:35.850Z,5.82
2023-12-15T02:06:02.390Z,5.57
2023-12-15T02:08:28.836Z,7.63
2023-12-15T02:10:55.320Z,6.63
2023-12-15T02:13:21.706Z,6.22
2023-12-15T02:15:48.103Z,5.90
2023-12-15T02:18:14.607Z,6.73
2023-12-15T02:20:41.015Z,6.82
2023-12-15T02:23:07.410Z,6.03
2023-12-15T02:25:33.785Z,5.75
2023-12-15T02:28:00.148Z,6.63
2023-12-15T02:30:26.559Z,5.57
2023-12-15T02:32:53.041Z,5.60
2023-12-15T02:35:19.642Z,5.10
2023-12-15T02:37:46.015Z,5.78
2023-12-15T02:40:13.582Z,5.97
2023-12-15T02:42:40.232Z,5.87
2023-12-15T02:45:07.170Z,5.82
2023-12-15T02:47:33.841Z,5.20
2023-12-15T02:50:00.429Z,4.93
2023-12-15T02:52:26.796Z,5.15
2023-12-15T02:54:53.119Z,5.17
2023-12-15T02:57:19.531Z,5.65
2023-12-15T02:59:45.887Z,5.25
2023-12-15T03:02:12.306Z,6.10
2023-12-15T03:04:38.662Z,5.00
2023-12-15T03:07:05.007Z,5.90
2023-12-15T03:09:31.373Z,5.40
2023-12-15T03:11:58.019Z,5.60
2023-12-15T03:14:24.407Z,5.35
2023-12-15T03:16:50.808Z,5.10
2023-12-15T03:19:17.265Z,5.40
2023-12-15T03:21:43.639Z,5.57
2023-12-15T03:24:10.041Z,5.45
2023-12-15T03:26:36.389Z,5.15
2023-12-15T03:29:02.787Z,5.60
2023-12-15T03:31:29.114Z,5.33
2023-12-15T03:33:55.553Z,5.40
2023-12-15T03:36:21.938Z,5.78
2023-12-15T03:38:48.267Z,6.10
2023-12-15T03:41:14.786Z,5.60
2023-12-15T03:43:41.130Z,5.57
2023-12-15T03:46:07.480Z,5.68
2023-12-15T03:48:33.970Z,6.53
2023-12-15T03:51:00.407Z,5.93
2023-12-15T03:53:26.761Z,6.18
2023-12-15T03:55:53.210Z,5.77
2023-12-15T03:58:19.564Z,5.90
2023-12-15T04:00:45.985Z,5.13
2023-12-15T04:03:12.430Z,5.90
2023-12-15T04:05:38.872Z,5.65
2023-12-15T04:08:05.360Z,6.10
2023-12-15T04:10:31.718Z,5.30
2023-12-15T04:12:58.113Z,6.25
2023-12-15T04:15:24.447Z,5.53
2023-12-15T04:17:50.912Z,6.25
2023-12-15T04:20:17.512Z,5.23
2023-12-15T04:22:43.894Z,5.22
2023-12-15T04:25:10.271Z,5.68
2023-12-15T04:27:39.294Z,5.20
2023-12-15T04:30:07.411Z,5.22
2023-12-15T04:32:33.980Z,5.40
2023-12-15T04:35:00.425Z,5.03
2023-12-15T04:37:26.796Z,5.40
2023-12-15T04:39:53.268Z,5.00
2023-12-15T04:42:19.646Z,5.68
2023-12-15T04:44:46.091Z,5.80
2023-12-15T04:47:12.587Z,5.90
2023-12-15T04:49:39.857Z,6.07
2023-12-15T04:52:06.472Z,6.22
2023-12-15T04:54:32.817Z,6.60
2023-12-15T04:56:59.165Z,6.33
2023-12-15T04:59:25.947Z,6.25
2023-12-15T05:01:52.373Z,6.32
2023-12-15T05:04:18.702Z,6.07
2023-12-15T05:06:45.042Z,6.38
2023-12-15T05:09:11.394Z,6.40
2023-12-15T05:11:37.993Z,5.85
2023-12-15T05:14:04.443Z,5.65
2023-12-15T05:16:30.877Z,5.32
2023-12-15T05:18:57.393Z,5.30
2023-12-15T05:21:23.789Z,5.10
2023-12-15T05:23:50.192Z,5.40
2023-12-15T05:26:16.721Z,5.43
2023-12-15T05:28:45.403Z,5.35
2023-12-15T05:31:11.745Z,5.35
2023-12-15T05:33:38.227Z,4.27
2023-12-15T05:36:04.928Z,4.78
2023-12-15T05:38:31.275Z,5.68
2023-12-15T05:40:57.707Z,4.90
2023-12-15T05:43:24.088Z,5.65
2023-12-15T05:45:50.425Z,4.80
2023-12-15T05:48:17.609Z,5.25
2023-12-15T05:50:44.073Z,4.97
2023-12-15T05:53:10.431Z,5.50
2023-12-15T05:55:37.467Z,5.35
2023-12-15T05:58:03.789Z,5.07
2023-12-15T06:00:30.153Z,5.20
2023-12-15T06:02:56.511Z,5.13
2023-12-15T06:05:23.020Z,4.95
2023-12-15T06:07:49.381Z,5.10
2023-12-15T06:10:15.797Z,5.40
2023-12-15T06:12:42.128Z,6.03
2023-12-15T06:15:09.464Z,8.05
2023-12-15T06:17:36.333Z,7.20
2023-12-15T06:20:03.227Z,7.40
2023-12-15T06:22:29.590Z,7.67
2023-12-15T06:24:55.930Z,7.75
2023-12-15T06:27:22.479Z,7.55
2023-12-15T06:29:48.813Z,7.10
2023-12-15T06:32:16.960Z,8.52
2023-12-15T06:34:43.558Z,7.23
2023-12-15T06:37:10.097Z,7.25
2023-12-15T06:39:36.473Z,7.40
2023-12-15T06:42:04.130Z,8.23
2023-12-15T06:44:30.734Z,6.90
2023-12-15T06:46:57.149Z,7.10
2023-12-15T06:49:31.193Z,6.40
2023-12-15T06:51:58.958Z,6.47
2023-12-15T06:54:25.519Z,6.00
2023-12-15T06:56:51.848Z,6.68
2023-12-15T06:59:18.372Z,6.73
2023-12-15T07:01:44.808Z,6.38
2023-12-15T07:04:11.385Z,6.25
2023-12-15T07:06:38.329Z,6.30
2023-12-15T07:09:04.748Z,6.20
2023-12-15T07:11:31.128Z,5.67
2023-12-15T07:13:57.521Z,6.90
2023-12-15T07:16:23.867Z,6.50
2023-12-15T07:18:50.348Z,5.82
2023-12-15T07:21:16.742Z,6.22
2023-12-15T07:23:43.108Z,7.27
2023-12-15T07:26:11.482Z,6.30
2023-12-15T07:28:37.823Z,6.90
2023-12-15T07:31:04.361Z,5.90
2023-12-15T07:33:30.797Z,6.60
2023-12-15T07:35:57.271Z,7.47
2023-12-15T07:38:23.679Z,6.60
2023-12-15T07:40:55.118Z,6.50
2023-12-15T07:43:22.162Z,6.50
2023-12-15T07:45:48.577Z,5.90
2023-12-15T07:48:14.962Z,6.53
2023-12-15T07:50:41.404Z,6.32
2023-12-15T07:53:07.802Z,6.07
2023-12-15T07:55:34.267Z,6.25
2023-12-15T07:58:00.604Z,5.85
2023-12-15T08:00:27.056Z,5.90
2023-12-15T08:02:53.480Z,6.22
2023-12-15T08:05:20.010Z,6.40
2023-12-15T08:07:46.444Z,5.88
2023-12-15T08:10:12.775Z,6.28
2023-12-15T08:12:39.095Z,6.20
2023-12-15T08:15:06.290Z,6.28
2023-12-15T08:17:34.893Z,5.88
2023-12-15T08:20:03.104Z,5.90
2023-12-15T08:22:29.588Z,6.30
2023-12-15T08:24:55.931Z,6.00
2023-12-15T08:27:22.340Z,6.20
2023-12-15T08:29:49.473Z,5.75
2023-12-15T08:32:15.856Z,6.47
2023-12-15T08:34:43.690Z,5.35
2023-12-15T08:37:10.213Z,5.10
2023-12-15T08:39:36.968Z,5.45
2023-12-15T08:42:03.681Z,5.55
2023-12-15T08:44:34.437Z,5.50
2023-12-15T08:47:01.872Z,5.60
2023-12-15T08:49:28.631Z,5.80
2023-12-15T08:51:55.415Z,5.43
2023-12-15T08:54:21.759Z,4.80
2023-12-15T08:56:48.167Z,5.28
2023-12-15T08:59:14.568Z,5.28
2023-12-15T09:01:40.936Z,5.40
2023-12-15T09:04:07.255Z,4.93
2023-12-15T09:06:37.687Z,4.85
2023-12-15T09:09:09.163Z,4.60
2023-12-15T09:11:35.803Z,5.30
2023-12-15T09:14:02.678Z,4.37
2023-12-15T09:16:29.251Z,4.53
2023-12-15T09:18:55.703Z,4.80
2023-12-15T09:21:22.084Z,4.20
2023-12-15T09:23:48.439Z,4.05
2023-12-15T09:26:15.015Z,4.33
2023-12-15T09:28:41.403Z,4.57
2023-12-15T09:31:07.734Z,4.60
2023-12-15T09:33:34.113Z,4.22
2023-12-15T09:36:00.617Z,4.50
2023-12-15T09:38:26.980Z,4.40
2023-12-15T09:40:53.419Z,4.03
2023-12-15T09:43:19.802Z,4.30
2023-12-15T09:45:46.874Z,4.40
2023-12-15T09:48:14.767Z,3.85
2023-12-15T09:50:46.818Z,4.13
2023-12-15T09:53:13.564Z,3.85
2023-12-15T09:55:40.267Z,3.72
2023-12-15T09:58:07.119Z,3.53
2023-12-15T10:00:33.806Z,3.70
2023-12-15T10:03:00.889Z,3.47
2023-12-15T10:05:28.746Z,3.70
2023-12-15T10:07:55.096Z,3.80
2023-12-15T10:10:24.455Z,3.45
2023-12-15T10:12:51.054Z,3.42
2023-12-15T10:15:18.588Z,3.43
2023-12-15T10:17:45.625Z,3.47
2023-12-15T10:20:12.709Z,3.25
2023-12-15T10:22:40.835Z,3.35
2023-12-15T10:25:24.767Z,3.63
2023-12-15T10:27:52.519Z,3.00
2023-12-15T10:30:21.403Z,3.08
2023-12-15T10:32:49.031Z,3.38
2023-12-15T10:35:17.585Z,3.00
2023-12-15T10:37:44.521Z,3.20
2023-12-15T10:40:12.492Z,2.90
2023-12-15T10:42:41.205Z,2.85
2023-12-15T10:45:09.267Z,2.95
2023-12-15T10:47:36.201Z,3.08
2023-12-15T10:50:03.383Z,3.20
2023-12-15T10:52:33.484Z,3.40
2023-12-15T10:55:04.028Z,3.05
2023-12-15T10:57:33.736Z,3.28
2023-12-15T11:00:01.509Z,3.50
2023-12-15T11:02:31.845Z,3.28
2023-12-15T11:05:00.357Z,3.40
2023-12-15T11:07:28.779Z,3.65
2023-12-15T11:09:55.896Z,3.47
2023-12-15T11:12:33.348Z,3.20
2023-12-15T11:15:08.958Z,3.47
2023-12-15T11:17:49.840Z,3.07
2023-12-15T11:20:19.491Z,3.05
2023-12-15T11:22:54.122Z,3.38
2023-12-15T11:25:22.713Z,3.92
2023-12-15T11:28:16.837Z,3.20
2023-12-15T11:30:45.674Z,3.20
2023-12-15T11:33:20.946Z,3.10
2023-12-15T11:35:52.956Z,3.05
2023-12-15T11:38:21.206Z,3.00
2023-12-15T11:40:51.688Z,3.38
2023-12-15T11:43:18.834Z,3.30
2023-12-15T11:45:45.909Z,3.38
2023-12-15T11:48:12.296Z,3.53
2023-12-15T11:50:44.648Z,3.08
2023-12-15T11:53:13.403Z,2.95
2023-12-15T11:55:41.761Z,2.83
2023-12-15T11:58:08.172Z,2.90
2023-12-15T12:00:34.519Z,3.05
2023-12-15T12:03:00.904Z,3.08
2023-12-15T12:05:31.035Z,3.70
2023-12-15T12:07:59.856Z,3.23
2023-12-15T12:10:32.075Z,3.38
2023-12-15T12:12:59.260Z,2.97
2023-12-15T12:15:25.999Z,3.47
2023-12-15T12:17:52.588Z,3.13
2023-12-15T12:20:19.619Z,3.60
2023-12-15T12:22:46.899Z,3.00
2023-12-15T12:25:14.878Z,3.13
2023-12-15T12:27:42.236Z,3.15
2023-12-15T12:30:17.522Z,3.92
2023-12-15T12:32:45.092Z,3.50
2023-12-15T12:35:12.195Z,3.45
2023-12-15T12:37:38.619Z,3.28
2023-12-15T12:40:05.629Z,3.83
2023-12-15T12:42:32.097Z,3.78
2023-12-15T12:44:58.466Z,3.43
2023-12-15T12:47:27.994Z,3.40
2023-12-15T12:49:55.855Z,3.38
2023-12-15T12:52:22.316Z,3.78
2023-12-15T12:54:50.202Z,3.28
2023-12-15T12:57:16.567Z,3.73
2023-12-15T12:59:43.146Z,3.47
2023-12-15T13:02:18.265Z,3.45
2023-12-15T13:04:47.741Z,4.13
2023-12-15T13:07:14.093Z,4.45
2023-12-15T13:09:40.409Z,4.10
2023-12-15T13:12:06.777Z,4.00
2023-12-15T13:14:33.146Z,4.05
2023-12-15T13:17:01.255Z,4.60
2023-12-15T13:19:28.351Z,3.90
2023-12-15T13:21:54.858Z,3.97
2023-12-15T13:24:21.197Z,4.65
2023-12-15T13:26:47.554Z,4.75
2023-12-15T13:29:14.504Z,4.95
2023-12-15T13:31:40.860Z,4.43
2023-12-15T13:34:07.780Z,4.77
2023-12-15T13:36:34.199Z,5.18
2023-12-15T13:39:00.697Z,6.00
2023-12-15T13:41:27.117Z,5.25
2023-12-15T13:43:53.443Z,4.70
2023-12-15T13:46:20.817Z,4.70
2023-12-15T13:48:47.265Z,7.47
2023-12-15T13:51:13.685Z,6.13
2023-12-15T13:53:40.061Z,4.57
2023-12-15T13:56:06.916Z,4.70
2023-12-15T13:58:34.891Z,6.63
2023-12-15T14:01:01.469Z,6.57
2023-12-15T14:03:28.538Z,8.02
2023-12-15T14:05:55.298Z,5.95
2023-12-15T14:08:22.288Z,5.40
2023-12-15T14:10:48.631Z,5.10
2023-12-15T14:13:15.131Z,5.97
2023-12-15T14:15:41.524Z,7.47
2023-12-15T14:18:08.814Z,6.50
2023-12-15T14:20:35.295Z,5.55
2023-12-15T14:23:01.694Z,5.50
2023-12-15T14:25:28.085Z,4.57
2023-12-15T14:27:54.466Z,5.03
2023-12-15T14:30:20.841Z,5.30
2023-12-15T14:32:48.435Z,5.72
2023-12-15T14:35:14.962Z,5.20
2023-12-15T14:37:42.124Z,4.97
2023-12-15T14:40:08.862Z,5.90
2023-12-15T14:42:35.527Z,5.38
2023-12-15T14:45:02.632Z,4.88
2023-12-15T14:47:29.101Z,4.70
2023-12-15T14:49:55.578Z,4.47
2023-12-15T14:52:22.002Z,5.07
2023-12-15T14:54:48.391Z,5.50
2023-12-15T14:57:15.136Z,4.82
2023-12-15T14:59:41.519Z,5.00
2023-12-15T15:02:08.197Z,6.60
2023-12-15T15:04:35.181Z,6.47
2023-12-15T15:07:01.582Z,7.70
2023-12-15T15:09:27.978Z,6.55
2023-12-15T15:11:54.464Z,7.67
2023-12-15T15:14:20.893Z,6.88
2023-12-15T15:16:47.462Z,8.48
2023-12-15T15:19:14.006Z,7.30
2023-12-15T15:21:40.927Z,6.85
2023-12-15T15:24:07.302Z,5.90
2023-12-15T15:26:33.732Z,5.90
2023-12-15T15:29:00.194Z,5.43
2023-12-15T15:31:26.652Z,5.07
2023-12-15T15:33:54.909Z,4.78
2023-12-15T15:36:23.813Z,4.73
2023-12-15T15:38:50.894Z,5.50
2023-12-15T15:41:17.578Z,5.63
2023-12-15T15:43:43.912Z,6.55
2023-12-15T15:46:20.136Z,6.00
2023-12-15T15:48:48.346Z,5.50
2023-12-15T15:51:22.420Z,5.47
2023-12-15T15:53:49.890Z,5.45
2023-12-15T15:56:17.033Z,5.53
2023-12-15T15:58:43.624Z,4.90
2023-12-15T16:01:10.172Z,5.30
2023-12-15T16:03:38.072Z,3.67
2023-12-15T16:06:04.726Z,3.78
2023-12-15T16:08:34.696Z,4.13
2023-12-15T16:11:02.017Z,6.25
2023-12-15T16:13:28.350Z,8.37
2023-12-15T16:15:54.672Z,6.57
2023-12-15T16:18:21.268Z,6.78
2023-12-15T16:20:47.757Z,6.50
2023-12-15T16:23:14.953Z,7.88
2023-12-15T16:25:41.590Z,7.40
2023-12-15T16:28:08.151Z,8.25
2023-12-15T16:30:34.631Z,8.50
2023-12-15T16:33:02.249Z,7.63
2023-12-15T16:35:28.618Z,6.95
2023-12-15T16:37:55.508Z,6.93
2023-12-15T16:40:21.899Z,6.53
2023-12-15T16:42:48.395Z,6.15
2023-12-15T16:45:16.008Z,6.28
2023-12-15T16:47:43.376Z,6.35
2023-12-15T16:50:10.682Z,7.83
2023-12-15T16:52:38.573Z,8.48
2023-12-15T16:55:06.880Z,7.05
2023-12-15T16:57:33.361Z,8.27
2023-12-15T16:59:59.856Z,6.78
2023-12-15T17:02:26.200Z,6.20
2023-12-15T17:04:52.542Z,6.68
2023-12-15T17:07:19.985Z,6.03
2023-12-15T17:09:46.780Z,6.18
2023-12-15T17:12:13.202Z,5.85
2023-12-15T17:14:41.215Z,5.97
2023-12-15T17:17:07.592Z,5.88
2023-12-15T17:19:33.989Z,6.45
2023-12-15T17:22:00.882Z,7.25
2023-12-15T17:24:27.389Z,6.55
2023-12-15T17:26:53.728Z,8.57
2023-12-15T17:29:20.072Z,8.50
2023-12-15T17:31:48.364Z,7.18
2023-12-15T17:34:15.038Z,6.57
2023-12-15T17:36:41.714Z,6.50
2023-12-15T17:39:08.177Z,6.43
2023-12-15T17:41:35.120Z,6.13
2023-12-15T17:44:01.558Z,5.95
2023-12-15T17:46:34.348Z,5.82
2023-12-15T17:49:01.347Z,7.75
2023-12-15T17:51:27.854Z,11.37
2023-12-15T17:53:54.239Z,7.93
2023-12-15T17:56:20.660Z,10.30
2023-12-15T17:58:47.275Z,10.07
2023-12-15T18:01:13.786Z,8.32
2023-12-15T18:03:40.825Z,7.80
2023-12-15T18:06:07.996Z,6.55
2023-12-15T18:08:34.381Z,6.40
2023-12-15T18:11:00.752Z,6.00
2023-12-15T18:13:27.307Z,5.95
2023-12-15T18:15:53.710Z,8.03
2023-12-15T18:18:20.093Z,6.97
2023-12-15T18:20:47.191Z,6.40
2023-12-15T18:23:14.898Z,6.40
2023-12-15T18:25:44.602Z,6.93
2023-12-15T18:28:16.982Z,6.57
2023-12-15T18:30:49.497Z,7.00
2023-12-15T18:33:16.109Z,5.65
2023-12-15T18:35:42.666Z,5.55
2023-12-15T18:38:09.003Z,5.88
2023-12-15T18:40:35.577Z,6.50
2023-12-15T18:43:02.016Z,6.03
2023-12-15T18:45:28.415Z,6.38
2023-12-15T18:47:55.194Z,6.25
2023-12-15T18:50:21.588Z,5.15
2023-12-15T18:52:47.922Z,5.40
2023-12-15T18:55:14.306Z,5.57
2023-12-15T18:57:46.873Z,5.50
2023-12-15T19:00:21.805Z,6.28
2023-12-15T19:02:49.059Z,6.65
2023-12-15T19:05:15.496Z,12.73
2023-12-15T19:07:44.684Z,6.97
2023-12-15T19:10:11.090Z,7.72
2023-12-15T19:12:37.597Z,7.13
2023-12-15T19:15:07.257Z,6.57
2023-12-15T19:17:34.066Z,7.30
2023-12-15T19:20:00.682Z,7.25
2023-12-15T19:22:27.097Z,6.88
2023-12-15T19:24:55.260Z,6.75
2023-12-15T19:27:21.621Z,6.82
2023-12-15T19:29:47.981Z,7.23
2023-12-15T19:32:14.303Z,7.10
2023-12-15T19:34:40.859Z,6.45
2023-12-15T19:37:07.331Z,6.38
2023-12-15T19:39:33.824Z,6.13
2023-12-15T19:42:00.197Z,7.10
2023-12-15T19:44:26.594Z,5.97
2023-12-15T19:46:52.913Z,6.88
2023-12-15T19:49:19.314Z,9.48
2023-12-15T19:51:45.826Z,7.57
2023-12-15T19:54:19.500Z,7.47
2023-12-15T19:56:48.225Z,6.72
2023-12-15T19:59:17.157Z,6.82
2023-12-15T20:01:45.204Z,8.55
2023-12-15T20:04:12.107Z,7.25
2023-12-15T20:06:38.590Z,6.37
2023-12-15T20:09:05.309Z,6.10
2023-12-15T20:11:36.649Z,6.20
2023-12-15T20:14:05.515Z,6.68
2023-12-15T20:16:32.868Z,6.68
2023-12-15T20:19:01.672Z,6.60
2023-12-15T20:21:29.411Z,6.07
2023-12-15T20:23:56.620Z,5.85
2023-12-15T20:26:23.108Z,5.90
2023-12-15T20:28:49.676Z,6.60
2023-12-15T20:31:17.312Z,5.63
2023-12-15T20:33:43.906Z,5.35
2023-12-15T20:36:10.828Z,5.60
2023-12-15T20:38:37.231Z,6.43
2023-12-15T20:41:03.769Z,6.72
2023-12-15T20:43:30.107Z,7.30
2023-12-15T20:45:56.472Z,8.35
2023-12-15T20:48:23.902Z,6.50
2023-12-15T20:50:52.647Z,6.28
2023-12-15T20:53:18.974Z,6.53
2023-12-15T20:55:45.373Z,6.23
2023-12-15T20:58:11.814Z,6.93
2023-12-15T21:00:38.313Z,8.02
2023-12-15T21:03:04.729Z,7.82
2023-12-15T21:05:31.359Z,7.93
2023-12-15T21:07:57.701Z,7.47
2023-12-15T21:10:24.071Z,6.45
2023-12-15T21:12:50.569Z,5.80
2023-12-15T21:15:17.676Z,5.53
2023-12-15T21:17:44.273Z,5.25
2023-12-15T21:20:13.256Z,6.30
2023-12-15T21:22:41.438Z,6.97
2023-12-15T21:25:08.780Z,7.70
2023-12-15T21:27:35.533Z,6.90
2023-12-15T21:30:02.237Z,6.05
2023-12-15T21:32:28.623Z,5.97
2023-12-15T21:34:55.676Z,5.32
2023-12-15T21:37:22.086Z,7.05
2023-12-15T21:39:48.628Z,6.10
2023-12-15T21:42:15.012Z,6.95
2023-12-15T21:44:41.734Z,6.27
2023-12-15T21:47:09.246Z,6.95
2023-12-15T21:49:36.584Z,7.55
2023-12-15T21:52:03.780Z,6.53
2023-12-15T21:54:30.382Z,5.95
2023-12-15T21:56:56.743Z,5.67
2023-12-15T21:59:23.276Z,8.23
2023-12-15T22:01:53.886Z,7.35
2023-12-15T22:04:20.387Z,6.43
2023-12-15T22:06:46.762Z,5.53
2023-12-15T22:09:13.102Z,5.90
2023-12-15T22:11:39.561Z,5.70
2023-12-15T22:14:05.898Z,4.78
2023-12-15T22:16:32.322Z,4.72
2023-12-15T22:18:58.777Z,5.38
2023-12-15T22:21:25.280Z,5.00
2023-12-15T22:23:51.669Z,4.60
2023-12-15T22:26:18.039Z,5.20
2023-12-15T22:28:45.265Z,4.57
2023-12-15T22:31:11.756Z,4.55
2023-12-15T22:33:38.591Z,4.60
2023-12-15T22:36:05.323Z,4.10
2023-12-15T22:38:31.779Z,5.13
2023-12-15T22:40:58.134Z,5.93
2023-12-15T22:43:24.540Z,6.00
2023-12-15T22:45:50.942Z,6.53
2023-12-15T22:48:17.325Z,6.68
2023-12-15T22:50:43.706Z,6.70
2023-12-15T22:53:10.035Z,6.47
2023-12-15T22:55:36.373Z,5.95
2023-12-15T22:58:02.751Z,6.10
2023-12-15T23:00:32.057Z,4.72
2023-12-15T23:02:58.671Z,4.60
2023-12-15T23:05:25.699Z,4.85
2023-12-15T23:07:52.460Z,5.20
2023-12-15T23:10:20.621Z,5.50
2023-12-15T23:12:47.470Z,4.95
2023-12-15T23:15:18.521Z,6.82
2023-12-15T23:17:50.057Z,7.03
2023-12-15T23:20:17.187Z,6.43
2023-12-15T23:22:43.565Z,5.67
2023-12-15T23:25:10.023Z,6.00
2023-12-15T23:27:36.576Z,6.13
2023-12-15T23:30:03.213Z,5.38
2023-12-15T23:32:29.803Z,5.38
2023-12-15T23:34:56.409Z,5.07
2023-12-15T23:37:22.857Z,4.85
2023-12-15T23:39:49.457Z,4.57
2023-12-15T23:42:15.822Z,4.63
2023-12-15T23:44:42.285Z,4.68
2023-12-15T23:47:08.573Z,4.80
2023-12-15T23:49:35.549Z,5.10
2023-12-15T23:52:01.974Z,5.05
2023-12-15T23:54:28.319Z,4.75
2023-12-15T23:56:55.156Z,5.18
2023-12-15T23:59:21.487Z,4.80
